Time;durP1;ratioP1;P1;durP2;ratioP2;P2;SDS_P1;SDS_P2;PMS_P1;PMS_P2;Temp;Humidity;BMP_temperature;BMP_pressure;BME280_temperature;BME280_humidity;BME280_pressure;Samples;Min_cycle;Max_cycle;Signal;HPM_P1;HPM_P2
2022/03/22 00:02:18;;;;;;;51.40;41.22;;;7.20;99.90;;;;;;5040683;28;20114;-58
2022/03/22 00:04:44;;;;;;;53.78;40.55;;;7.20;99.90;;;;;;5040917;28;20053;-58
2022/03/22 00:07:10;;;;;;;55.67;41.25;;;7.20;99.90;;;;;;5040980;28;20045;-58
2022/03/22 00:09:37;;;;;;;47.50;38.72;;;7.10;99.90;;;;;;5042739;28;20261;-58
2022/03/22 00:12:03;;;;;;;48.78;39.55;;;7.10;99.90;;;;;;5037987;28;20053;-59
2022/03/22 00:14:29;;;;;;;53.10;41.25;;;7.10;99.90;;;;;;5057075;28;20128;-59
2022/03/22 00:16:56;;;;;;;48.95;39.28;;;7.10;99.90;;;;;;5025074;28;20053;-58
2022/03/22 00:19:22;;;;;;;47.15;38.35;;;7.10;99.90;;;;;;5008216;28;20044;-58
2022/03/22 00:21:48;;;;;;;50.55;38.28;;;7.00;99.90;;;;;;5041601;28;20067;-59
2022/03/22 00:24:14;;;;;;;51.92;40.38;;;7.00;99.90;;;;;;5037394;28;20041;-58
2022/03/22 00:26:40;;;;;;;51.78;39.72;;;7.00;99.90;;;;;;5042858;28;20378;-58
2022/03/22 00:29:07;;;;;;;51.97;40.47;;;6.90;99.90;;;;;;5041224;28;20090;-58
2022/03/22 00:31:33;;;;;;;52.03;41.42;;;7.00;99.90;;;;;;5042303;28;20432;-58
2022/03/22 00:33:59;;;;;;;49.10;39.90;;;6.90;99.90;;;;;;5024646;28;20110;-58
2022/03/22 00:36:26;;;;;;;51.25;40.35;;;6.90;99.90;;;;;;5042527;28;20053;-58
2022/03/22 00:38:52;;;;;;;49.63;41.92;;;6.90;99.90;;;;;;5039908;28;20184;-58
2022/03/22 00:41:19;;;;;;;53.25;38.35;;;6.80;99.90;;;;;;5024051;28;20210;-59
2022/03/22 00:43:46;;;;;;;55.67;41.10;;;6.80;99.90;;;;;;5040105;28;20052;-58
2022/03/22 00:46:12;;;;;;;51.53;40.55;;;6.80;99.90;;;;;;5040970;28;20538;-58
2022/03/22 00:48:40;;;;;;;47.72;39.00;;;6.80;99.90;;;;;;5041556;28;20420;-58
2022/03/22 00:51:09;;;;;;;54.13;41.72;;;6.80;99.90;;;;;;5042750;28;20552;-58
2022/03/22 00:53:35;;;;;;;49.25;39.72;;;6.70;99.90;;;;;;5039894;28;20056;-58
2022/03/22 00:56:02;;;;;;;52.63;39.58;;;6.70;99.90;;;;;;5041820;28;20147;-58
2022/03/22 00:58:28;;;;;;;52.97;41.47;;;6.80;99.90;;;;;;5040223;28;20470;-59
2022/03/22 01:00:56;;;;;;;49.85;40.50;;;6.80;99.90;;;;;;5038943;28;20040;-58
2022/03/22 01:03:22;;;;;;;51.67;40.88;;;6.80;99.90;;;;;;5041069;28;20049;-58
2022/03/22 01:05:50;;;;;;;56.60;40.90;;;6.80;99.90;;;;;;5039793;28;20048;-58
2022/03/22 01:08:17;;;;;;;48.30;38.63;;;6.70;99.90;;;;;;5039594;28;20070;-58
2022/03/22 01:10:52;;;;;;;52.53;41.45;;;6.70;99.90;;;;;;5039493;28;20610;-58
2022/03/22 01:13:24;;;;;;;51.90;41.72;;;6.70;99.90;;;;;;5040110;28;20041;-58
2022/03/22 01:15:51;;;;;;;51.60;41.05;;;6.70;99.90;;;;;;5041800;28;20132;-60
2022/03/22 01:18:18;;;;;;;50.10;39.83;;;6.70;99.90;;;;;;5023759;28;20052;-61
2022/03/22 01:20:47;;;;;;;52.85;40.42;;;6.70;99.90;;;;;;5042784;28;20545;-60
2022/03/22 01:23:15;;;;;;;50.10;40.92;;;6.70;99.90;;;;;;5043399;28;20187;-60
2022/03/22 01:25:43;;;;;;;49.03;39.80;;;6.70;99.90;;;;;;5023892;28;20057;-61
2022/03/22 01:28:11;;;;;;;51.83;40.80;;;6.70;99.90;;;;;;5046113;28;21175;-61
2022/03/22 01:30:38;;;;;;;53.85;41.00;;;6.60;99.90;;;;;;5028314;28;20091;-60
2022/03/22 01:33:05;;;;;;;55.35;43.45;;;6.60;99.90;;;;;;5028365;28;20099;-60
2022/03/22 01:35:32;;;;;;;51.40;40.63;;;6.50;99.90;;;;;;5060729;28;20071;-60
2022/03/22 01:37:59;;;;;;;57.58;43.78;;;6.50;99.90;;;;;;5060816;28;20098;-60
2022/03/22 01:40:27;;;;;;;52.13;41.35;;;6.50;99.90;;;;;;5041521;28;20434;-61
2022/03/22 01:42:54;;;;;;;54.03;41.58;;;6.50;99.90;;;;;;5043094;28;20049;-60
2022/03/22 01:45:20;;;;;;;47.88;40.60;;;6.50;99.90;;;;;;5044860;28;20045;-60
2022/03/22 01:47:49;;;;;;;49.85;40.42;;;6.40;99.90;;;;;;5043150;28;20053;-60
2022/03/22 01:50:17;;;;;;;47.58;40.25;;;6.40;99.90;;;;;;5045275;28;20051;-60
2022/03/22 01:52:44;;;;;;;51.50;42.35;;;6.40;99.90;;;;;;5042799;28;20099;-60
2022/03/22 01:55:13;;;;;;;50.25;40.17;;;6.30;99.90;;;;;;5045262;28;20468;-59
2022/03/22 01:57:40;;;;;;;47.63;38.92;;;6.30;99.90;;;;;;5043051;28;20045;-59
2022/03/22 02:00:10;;;;;;;50.42;40.35;;;6.20;99.90;;;;;;5044796;28;20166;-59
2022/03/22 02:05:55;;;;;;;49.25;39.90;;;6.20;99.90;;;;;;5042868;28;20059;-59
2022/03/22 02:08:32;;;;;;;52.38;40.85;;;6.20;99.90;;;;;;5044052;28;20040;-58
2022/03/22 02:11:00;;;;;;;48.95;40.08;;;6.20;99.90;;;;;;5044094;28;20409;-59
2022/03/22 02:13:31;;;;;;;48.42;38.53;;;6.20;99.90;;;;;;5042492;28;20168;-58
2022/03/22 02:16:00;;;;;;;50.95;38.95;;;6.10;99.90;;;;;;5044339;28;20451;-59
2022/03/22 02:18:26;;;;;;;54.13;40.50;;;6.10;99.90;;;;;;5044705;28;20136;-58
2022/03/22 02:20:53;;;;;;;51.40;40.80;;;6.10;99.90;;;;;;5043666;28;20488;-59
2022/03/22 02:23:39;;;;;;;50.88;40.75;;;6.10;99.90;;;;;;5026619;28;20049;-58
2022/03/22 02:26:06;;;;;;;49.17;39.72;;;6.00;99.90;;;;;;5041744;28;20565;-59
2022/03/22 02:28:32;;;;;;;49.95;41.33;;;6.00;99.90;;;;;;5027255;28;20068;-59
2022/03/22 02:30:58;;;;;;;49.92;39.40;;;6.00;99.90;;;;;;5044254;28;20056;-58
2022/03/22 02:33:24;;;;;;;51.83;42.03;;;5.90;99.90;;;;;;5044677;28;20052;-58
2022/03/22 02:35:51;;;;;;;49.85;39.88;;;5.90;99.90;;;;;;5028582;28;20575;-59
2022/03/22 02:38:18;;;;;;;48.53;40.13;;;5.90;99.90;;;;;;5046073;28;20138;-60
2022/03/22 02:40:45;;;;;;;50.15;40.00;;;5.80;99.90;;;;;;5042047;28;20454;-60
2022/03/22 02:43:12;;;;;;;49.08;39.17;;;5.80;99.90;;;;;;5043807;28;20087;-60
2022/03/22 02:45:38;;;;;;;53.35;42.03;;;5.80;99.90;;;;;;5043111;28;20057;-60
2022/03/22 02:48:05;;;;;;;51.92;39.70;;;5.80;99.90;;;;;;5026951;28;20135;-60
2022/03/22 02:50:31;;;;;;;52.35;40.58;;;5.70;99.90;;;;;;5043963;28;20079;-60
2022/03/22 02:52:57;;;;;;;47.17;39.47;;;5.70;99.90;;;;;;5039901;28;20084;-60
2022/03/22 02:55:23;;;;;;;54.50;41.35;;;5.80;99.90;;;;;;5044419;28;20073;-59
2022/03/22 02:57:49;;;;;;;50.00;41.33;;;5.80;99.90;;;;;;5042548;28;20134;-60
2022/03/22 03:00:17;;;;;;;52.35;41.88;;;5.70;99.90;;;;;;5042930;28;20140;-59
2022/03/22 03:02:44;;;;;;;45.42;38.22;;;5.70;99.90;;;;;;5043744;28;20420;-59
2022/03/22 03:05:11;;;;;;;46.97;38.30;;;5.70;99.90;;;;;;5026013;28;20039;-60
2022/03/22 03:07:37;;;;;;;45.78;38.25;;;5.70;99.90;;;;;;5042663;28;20045;-60
2022/03/22 03:10:05;;;;;;;45.42;39.15;;;5.60;99.90;;;;;;5026136;28;20063;-60
2022/03/22 03:12:32;;;;;;;43.92;36.65;;;5.70;99.90;;;;;;5038129;28;20048;-60
2022/03/22 03:14:58;;;;;;;48.00;38.88;;;5.70;99.90;;;;;;5032527;28;20053;-60
2022/03/22 03:17:24;;;;;;;51.13;38.58;;;5.70;99.90;;;;;;5042358;28;20060;-60
2022/03/22 03:19:50;;;;;;;51.10;39.47;;;5.70;99.90;;;;;;5043413;28;20187;-60
2022/03/22 03:22:18;;;;;;;47.42;38.53;;;5.60;99.90;;;;;;5042073;28;20061;-60
2022/03/22 03:24:44;;;;;;;46.88;38.55;;;5.60;99.90;;;;;;5048227;28;20049;-60
2022/03/22 03:27:10;;;;;;;46.28;39.53;;;5.60;99.90;;;;;;5054591;28;20045;-60
2022/03/22 03:29:36;;;;;;;48.95;39.95;;;5.70;99.90;;;;;;5043628;28;20053;-62
2022/03/22 03:32:02;;;;;;;47.97;37.65;;;5.70;99.90;;;;;;5044103;28;20076;-60
2022/03/22 03:34:29;;;;;;;46.25;38.83;;;5.80;99.90;;;;;;5036648;28;20526;-60
2022/03/22 03:36:55;;;;;;;47.05;38.03;;;5.80;99.90;;;;;;5044073;28;20080;-60
2022/03/22 03:39:21;;;;;;;43.70;37.55;;;5.80;99.90;;;;;;5043072;28;20049;-59
2022/03/22 03:41:53;;;;;;;48.47;38.92;;;5.80;99.90;;;;;;5043864;28;20132;-58
2022/03/22 03:47:14;;;;;;;47.50;39.63;;;5.70;99.90;;;;;;5042526;28;20061;-60
2022/03/22 03:49:45;;;;;;;47.53;38.78;;;5.70;99.90;;;;;;5041464;28;20052;-60
2022/03/22 03:52:15;;;;;;;48.38;38.55;;;5.70;99.90;;;;;;5043677;28;20362;-60
2022/03/22 03:54:42;;;;;;;46.10;37.88;;;5.60;99.90;;;;;;5020553;28;20076;-60
2022/03/22 03:57:10;;;;;;;46.03;39.05;;;5.60;99.90;;;;;;5042966;28;20103;-61
2022/03/22 03:59:37;;;;;;;45.90;37.95;;;5.60;99.90;;;;;;5042761;28;20041;-61
2022/03/22 04:02:10;;;;;;;45.90;38.28;;;5.50;99.90;;;;;;5041810;28;20500;-60
2022/03/22 04:04:38;;;;;;;53.10;39.83;;;5.50;99.90;;;;;;5041272;28;20044;-58
2022/03/22 04:07:06;;;;;;;45.20;36.30;;;5.50;99.90;;;;;;5030780;28;20151;-58
2022/03/22 04:09:35;;;;;;;48.92;39.28;;;5.40;99.90;;;;;;5042056;28;20049;-58
2022/03/22 04:12:04;;;;;;;52.83;40.92;;;5.40;99.90;;;;;;5009285;28;20043;-58
2022/03/22 04:14:30;;;;;;;52.00;40.15;;;5.40;99.90;;;;;;5042314;28;20076;-58
2022/03/22 04:16:57;;;;;;;48.50;39.97;;;5.40;99.90;;;;;;5028976;28;20041;-60
2022/03/22 04:19:25;;;;;;;47.83;40.17;;;5.30;99.90;;;;;;5041030;28;20044;-60
2022/03/22 04:21:52;;;;;;;51.03;40.97;;;5.30;99.90;;;;;;5041233;28;20590;-60
2022/03/22 04:24:18;;;;;;;48.58;39.53;;;5.30;99.90;;;;;;5041579;28;20053;-58
2022/03/22 04:26:45;;;;;;;49.72;41.60;;;5.30;99.90;;;;;;5032909;28;20579;-58
2022/03/22 04:34:45;;;;;;;48.03;39.80;;;5.40;99.90;;;;;;5040319;28;20048;-59
2022/03/22 04:37:13;;;;;;;52.53;38.92;;;5.30;99.90;;;;;;5038308;28;20126;-57
2022/03/22 04:39:41;;;;;;;47.00;40.55;;;5.30;99.90;;;;;;5043095;28;20076;-58
2022/03/22 04:42:08;;;;;;;48.15;38.95;;;5.20;99.90;;;;;;5042041;28;20060;-59
2022/03/22 04:44:35;;;;;;;47.88;40.20;;;5.30;99.90;;;;;;5041630;28;20122;-58
2022/03/22 04:47:02;;;;;;;46.67;38.38;;;5.20;99.90;;;;;;5033297;28;20575;-58
2022/03/22 04:49:29;;;;;;;49.05;39.03;;;5.10;99.90;;;;;;5036426;28;20300;-58
2022/03/22 04:57:26;;;;;;;51.60;40.00;;;5.10;99.90;;;;;;5042518;28;20041;-60
2022/03/22 04:59:54;;;;;;;47.95;39.88;;;5.10;99.90;;;;;;5042019;28;20101;-60
2022/03/22 05:02:21;;;;;;;48.65;41.25;;;5.10;99.90;;;;;;5042388;28;20224;-60
2022/03/22 05:04:47;;;;;;;47.28;38.55;;;5.20;99.90;;;;;;5039882;28;20044;-60
2022/03/22 05:07:14;;;;;;;53.72;41.25;;;5.10;99.90;;;;;;5042462;28;20045;-60
2022/03/22 05:09:40;;;;;;;46.30;41.08;;;5.20;99.90;;;;;;5035553;28;20523;-60
2022/03/22 05:12:13;;;;;;;46.13;38.10;;;5.20;99.90;;;;;;5041811;28;20621;-60
2022/03/22 05:14:43;;;;;;;48.38;40.63;;;5.20;99.90;;;;;;5036212;28;20068;-61
2022/03/22 05:17:11;;;;;;;49.22;39.47;;;5.30;99.90;;;;;;5036825;28;20509;-61
2022/03/22 05:19:39;;;;;;;51.08;40.47;;;5.30;99.90;;;;;;5040865;28;20044;-60
2022/03/22 05:22:05;;;;;;;51.58;41.03;;;5.30;99.90;;;;;;5024469;28;20053;-61
2022/03/22 05:24:31;;;;;;;52.25;40.95;;;5.30;99.90;;;;;;5040575;28;20496;-60
2022/03/22 05:26:57;;;;;;;48.70;39.83;;;5.30;99.90;;;;;;5000212;28;20041;-60
2022/03/22 05:29:23;;;;;;;49.50;40.67;;;5.30;99.90;;;;;;5040583;28;20060;-60
2022/03/22 05:31:50;;;;;;;50.67;41.80;;;5.30;99.90;;;;;;5023883;28;20264;-60
2022/03/22 05:34:16;;;;;;;49.78;41.33;;;5.20;99.90;;;;;;5038781;28;20048;-60
2022/03/22 05:36:42;;;;;;;44.95;38.83;;;5.20;99.90;;;;;;5040281;28;20056;-60
2022/03/22 05:39:08;;;;;;;50.72;40.88;;;5.20;99.90;;;;;;5040554;28;20049;-60
2022/03/22 05:41:35;;;;;;;46.42;39.20;;;5.10;99.90;;;;;;5024083;28;20045;-60
2022/03/22 05:44:01;;;;;;;48.70;40.38;;;5.10;99.90;;;;;;5041282;28;20098;-60
2022/03/22 05:46:28;;;;;;;55.10;40.97;;;5.20;99.90;;;;;;5007908;28;20115;-58
2022/03/22 05:48:55;;;;;;;50.55;39.47;;;5.20;99.90;;;;;;5040628;28;20056;-58
2022/03/22 05:51:22;;;;;;;50.67;41.35;;;5.20;99.90;;;;;;5023863;28;20157;-58
2022/03/22 05:53:48;;;;;;;48.70;41.05;;;5.20;99.90;;;;;;5042259;28;20529;-58
2022/03/22 05:56:14;;;;;;;48.83;40.13;;;5.20;99.90;;;;;;5042436;28;20045;-60
2022/03/22 05:58:40;;;;;;;47.22;39.47;;;5.30;99.90;;;;;;5034825;28;20058;-57
2022/03/22 06:01:07;;;;;;;49.35;39.40;;;5.20;99.90;;;;;;5040629;28;20049;-57
2022/03/22 06:03:33;;;;;;;47.47;40.83;;;5.30;99.90;;;;;;5040141;28;20527;-57
2022/03/22 06:06:00;;;;;;;52.95;41.72;;;5.30;99.90;;;;;;5041178;28;20076;-57
2022/03/22 06:08:27;;;;;;;53.45;40.63;;;5.30;99.90;;;;;;5040653;28;20475;-57
2022/03/22 06:10:53;;;;;;;52.45;42.88;;;5.30;99.90;;;;;;5042153;28;20083;-58
2022/03/22 06:13:19;;;;;;;52.03;41.25;;;5.30;99.90;;;;;;5041292;28;20053;-57
2022/03/22 06:15:45;;;;;;;50.40;41.53;;;5.40;99.90;;;;;;5040091;28;20052;-57
2022/03/22 06:18:12;;;;;;;49.22;39.38;;;5.50;99.90;;;;;;5043163;28;20044;-58
2022/03/22 06:20:41;;;;;;;48.33;39.33;;;5.50;99.90;;;;;;5040694;28;20500;-58
2022/03/22 06:23:10;;;;;;;47.78;39.53;;;5.50;99.90;;;;;;5040030;28;20049;-58
2022/03/22 06:25:37;;;;;;;47.42;38.15;;;5.60;99.90;;;;;;5044942;28;20496;-57
2022/03/22 06:28:05;;;;;;;48.78;39.63;;;5.70;99.90;;;;;;5056375;28;20076;-57
2022/03/22 06:30:32;;;;;;;42.75;37.63;;;5.80;99.90;;;;;;5040699;28;20488;-58
2022/03/22 06:33:00;;;;;;;46.92;40.03;;;5.80;99.90;;;;;;5024745;28;20574;-58
2022/03/22 06:35:32;;;;;;;48.08;39.08;;;5.90;99.90;;;;;;5041899;28;20536;-57
2022/03/22 06:38:01;;;;;;;55.72;40.63;;;5.90;99.90;;;;;;5024300;28;20106;-56
2022/03/22 06:40:29;;;;;;;47.47;39.28;;;6.00;99.90;;;;;;5060850;28;20053;-57
2022/03/22 06:42:57;;;;;;;46.75;38.67;;;6.10;99.90;;;;;;5044396;28;20086;-58
2022/03/22 06:45:24;;;;;;;48.13;39.17;;;6.10;99.90;;;;;;5043830;28;20053;-57
2022/03/22 06:47:51;;;;;;;46.55;38.75;;;6.30;99.90;;;;;;5009971;28;20072;-57
2022/03/22 06:50:18;;;;;;;45.42;38.53;;;6.50;99.90;;;;;;5031837;28;20053;-58
2022/03/22 06:52:45;;;;;;;44.85;38.05;;;6.60;99.90;;;;;;5034777;28;20049;-57
2022/03/22 06:55:13;;;;;;;46.55;37.45;;;6.80;99.90;;;;;;5021898;28;20183;-60
2022/03/22 06:57:40;;;;;;;49.10;38.22;;;7.00;99.90;;;;;;5021472;28;20080;-59
2022/03/22 07:00:09;;;;;;;43.83;37.30;;;7.20;99.90;;;;;;5047792;28;20087;-57
2022/03/22 07:02:39;;;;;;;46.75;37.53;;;7.40;99.90;;;;;;5031824;28;20099;-57
2022/03/22 07:05:08;;;;;;;43.33;37.03;;;7.60;99.90;;;;;;5040226;28;20463;-58
2022/03/22 07:07:35;;;;;;;43.47;37.63;;;7.80;99.90;;;;;;5024000;28;20045;-58
2022/03/22 07:10:03;;;;;;;45.08;36.90;;;8.10;99.90;;;;;;5024036;28;20394;-59
2022/03/22 07:12:30;;;;;;;42.35;37.15;;;8.40;99.90;;;;;;5044820;28;20056;-59
2022/03/22 07:14:56;;;;;;;43.85;37.20;;;8.70;99.90;;;;;;5040851;28;20398;-59
2022/03/22 07:17:23;;;;;;;39.75;35.45;;;8.90;99.90;;;;;;5025963;28;20120;-60
2022/03/22 07:19:51;;;;;;;40.72;34.10;;;9.20;99.90;;;;;;5002214;28;20057;-59
2022/03/22 07:22:17;;;;;;;37.72;33.75;;;9.50;99.90;;;;;;5029786;28;20041;-58
2022/03/22 07:24:43;;;;;;;38.88;34.65;;;9.80;99.90;;;;;;5024757;28;20056;-59
2022/03/22 07:27:10;;;;;;;41.15;34.35;;;10.20;99.90;;;;;;5022854;28;20058;-59
2022/03/22 07:29:36;;;;;;;39.85;32.72;;;10.60;99.90;;;;;;5026590;28;20091;-59
2022/03/22 07:32:03;;;;;;;40.40;32.72;;;10.90;99.90;;;;;;5039364;28;20046;-59
2022/03/22 07:34:29;;;;;;;39.47;33.83;;;11.20;99.90;;;;;;5063458;28;20059;-59
2022/03/22 07:36:55;;;;;;;37.05;32.97;;;11.40;99.90;;;;;;5062425;28;20053;-59
2022/03/22 07:39:23;;;;;;;37.17;32.88;;;11.60;99.90;;;;;;5064330;28;20056;-59
2022/03/22 07:41:51;;;;;;;35.85;31.85;;;11.90;99.90;;;;;;5049048;28;20148;-58
2022/03/22 07:44:17;;;;;;;37.92;33.15;;;12.10;99.90;;;;;;5038541;28;20084;-58
2022/03/22 07:46:45;;;;;;;36.85;32.22;;;12.30;99.90;;;;;;5030447;28;20076;-58
2022/03/22 07:54:42;;;;;;;36.17;32.22;;;13.00;99.90;;;;;;5043522;28;20128;-61
2022/03/22 07:57:09;;;;;;;33.45;29.92;;;13.20;99.90;;;;;;5043551;28;20460;-61
2022/03/22 07:59:36;;;;;;;40.67;32.80;;;13.20;99.90;;;;;;5036257;28;20046;-63
2022/03/22 08:02:03;;;;;;;37.33;31.35;;;13.40;99.90;;;;;;5025068;28;20041;-61
2022/03/22 08:04:29;;;;;;;35.40;31.08;;;13.50;99.90;;;;;;5039267;28;20561;-61
2022/03/22 08:06:55;;;;;;;35.40;30.17;;;13.70;99.90;;;;;;5024486;28;20227;-59
2022/03/22 08:09:22;;;;;;;41.28;33.00;;;13.80;99.90;;;;;;5024875;28;20152;-58
2022/03/22 08:11:50;;;;;;;49.25;44.00;;;13.90;99.90;;;;;;5031453;28;20057;-62
2022/03/22 08:14:17;;;;;;;34.78;31.23;;;14.30;99.90;;;;;;5058744;28;20056;-64
2022/03/22 08:16:43;;;;;;;36.28;30.35;;;14.50;99.90;;;;;;5027600;28;20421;-64
2022/03/22 08:19:17;;;;;;;34.15;30.02;;;14.90;99.90;;;;;;5039798;28;20052;-58
2022/03/22 08:21:43;;;;;;;32.92;29.50;;;15.20;99.90;;;;;;5043968;28;20398;-60
2022/03/22 08:24:09;;;;;;;32.42;28.40;;;15.50;99.90;;;;;;5043048;28;20519;-59
2022/03/22 08:26:36;;;;;;;33.60;30.05;;;15.70;99.90;;;;;;5022300;28;20052;-60
2022/03/22 08:29:03;;;;;;;32.92;29.38;;;16.00;99.90;;;;;;5040865;28;20562;-62
2022/03/22 08:31:30;;;;;;;31.42;28.02;;;16.30;99.90;;;;;;5035811;28;20057;-63
2022/03/22 08:33:56;;;;;;;31.27;28.08;;;16.60;99.90;;;;;;5038899;28;20049;-62
2022/03/22 08:36:23;;;;;;;31.25;27.55;;;16.70;99.90;;;;;;5040732;28;20428;-62
2022/03/22 08:38:49;;;;;;;29.10;26.10;;;17.00;81.40;;;;;;5024288;28;20147;-62
2022/03/22 08:41:16;;;;;;;30.27;27.23;;;17.30;70.70;;;;;;5042426;28;20499;-59
2022/03/22 08:43:42;;;;;;;29.48;26.45;;;17.50;64.80;;;;;;5039656;28;20059;-59
2022/03/22 08:46:09;;;;;;;29.73;26.70;;;17.80;62.50;;;;;;5038804;28;20045;-59
2022/03/22 08:48:37;;;;;;;30.60;27.25;;;17.90;60.00;;;;;;5042667;28;20056;-60
2022/03/22 08:51:05;;;;;;;28.73;25.83;;;18.20;58.80;;;;;;5042011;28;20347;-57
2022/03/22 08:53:32;;;;;;;30.02;26.70;;;18.50;57.70;;;;;;5040925;28;20081;-62
2022/03/22 08:56:02;;;;;;;29.77;26.63;;;18.70;56.60;;;;;;5040078;28;20355;-62
2022/03/22 08:58:29;;;;;;;29.00;25.90;;;19.00;56.10;;;;;;5040538;28;20572;-62
2022/03/22 09:00:55;;;;;;;28.77;25.73;;;19.00;55.20;;;;;;5041886;28;20400;-62
2022/03/22 09:03:22;;;;;;;27.95;25.15;;;19.10;54.80;;;;;;5039511;28;20048;-62
2022/03/22 09:06:08;;;;;;;28.20;25.35;;;19.40;53.80;;;;;;5042423;28;20059;-62
2022/03/22 09:08:37;;;;;;;27.45;24.42;;;19.90;52.40;;;;;;5006350;28;20403;-57
2022/03/22 09:11:04;;;;;;;27.60;24.33;;;20.10;49.30;;;;;;5022975;28;20052;-57
2022/03/22 09:13:30;;;;;;;26.80;24.08;;;20.00;49.40;;;;;;5040106;28;20053;-58
2022/03/22 09:15:57;;;;;;;27.17;24.38;;;19.80;48.40;;;;;;5022689;28;20171;-63
2022/03/22 09:18:25;;;;;;;27.80;24.98;;;19.80;47.90;;;;;;5039479;28;20407;-64
2022/03/22 09:20:52;;;;;;;28.13;25.17;;;20.00;48.00;;;;;;5056346;28;20045;-58
2022/03/22 09:23:19;;;;;;;27.23;23.55;;;20.00;47.70;;;;;;5035746;28;20045;-58
2022/03/22 09:25:46;;;;;;;25.92;23.25;;;20.20;47.70;;;;;;5041005;28;20056;-59
2022/03/22 09:28:13;;;;;;;28.58;24.85;;;20.60;48.30;;;;;;5041192;28;20037;-58
2022/03/22 09:30:40;;;;;;;26.63;23.92;;;20.60;47.30;;;;;;5041467;28;20049;-64
2022/03/22 09:33:11;;;;;;;26.48;23.73;;;20.80;45.40;;;;;;5041567;28;20053;-66
2022/03/22 09:35:37;;;;;;;26.67;23.98;;;21.00;45.10;;;;;;5041982;28;20408;-59
2022/03/22 09:38:04;;;;;;;28.10;25.17;;;21.30;44.30;;;;;;5040891;28;20045;-58
2022/03/22 09:40:30;;;;;;;27.55;24.95;;;21.40;44.00;;;;;;5041083;28;20057;-59
2022/03/22 09:42:57;;;;;;;28.02;25.10;;;21.50;44.20;;;;;;5042921;28;20048;-59
2022/03/22 09:45:26;;;;;;;27.92;25.02;;;20.80;44.10;;;;;;5045400;28;20075;-59
2022/03/22 09:47:53;;;;;;;31.15;25.00;;;21.30;44.50;;;;;;5045379;28;20516;-59
2022/03/22 09:50:20;;;;;;;26.35;23.65;;;21.30;44.20;;;;;;5043888;28;20052;-58
2022/03/22 09:52:47;;;;;;;27.85;24.95;;;21.40;44.30;;;;;;5045687;28;20545;-58
2022/03/22 09:55:18;;;;;;;29.05;26.05;;;22.00;43.80;;;;;;5045267;28;20052;-58
2022/03/22 09:57:44;;;;;;;27.73;24.85;;;22.50;43.70;;;;;;5042595;28;20079;-58
2022/03/22 10:00:15;;;;;;;28.90;23.77;;;22.50;43.20;;;;;;5044770;28;20048;-59
2022/03/22 10:02:41;;;;;;;26.95;24.27;;;23.30;41.40;;;;;;5045285;28;20044;-58
2022/03/22 10:05:26;;;;;;;27.63;24.92;;;22.80;41.80;;;;;;5042476;28;20080;-59
2022/03/22 10:08:10;;;;;;;29.33;25.23;;;23.30;41.40;;;;;;5042517;28;20041;-59
2022/03/22 10:10:53;;;;;;;27.27;24.48;;;23.30;40.50;;;;;;5046523;28;20432;-59
2022/03/22 10:13:19;;;;;;;27.52;24.67;;;23.70;40.10;;;;;;5045770;28;20053;-59
2022/03/22 10:15:46;;;;;;;27.00;24.40;;;23.50;40.70;;;;;;5060354;28;20076;-59
2022/03/22 10:18:13;;;;;;;28.95;25.38;;;23.40;40.10;;;;;;5041913;28;20045;-59
2022/03/22 10:20:40;;;;;;;29.15;24.80;;;23.50;40.30;;;;;;5042675;28;20158;-59
2022/03/22 10:23:10;;;;;;;27.05;24.25;;;23.20;40.70;;;;;;5044338;28;20051;-59
2022/03/22 10:25:41;;;;;;;27.85;25.17;;;23.30;40.00;;;;;;5060140;28;20395;-59
2022/03/22 10:28:08;;;;;;;;;;;23.20;40.90;;;;;;5042966;28;20125;-59
2022/03/22 10:30:35;;;;;;;28.80;23.85;;;23.10;39.90;;;;;;5044040;28;20085;-59
2022/03/22 10:33:02;;;;;;;27.52;24.90;;;23.40;40.70;;;;;;5044420;28;20076;-59
2022/03/22 10:35:34;;;;;;;27.35;24.45;;;23.50;40.30;;;;;;5044656;28;20602;-59
2022/03/22 10:38:06;;;;;;;28.65;24.95;;;23.70;39.60;;;;;;5042983;28;20049;-59
2022/03/22 10:40:33;;;;;;;27.83;24.90;;;23.70;39.20;;;;;;5045360;28;20056;-59
2022/03/22 10:43:00;;;;;;;27.80;25.08;;;23.40;39.30;;;;;;5044418;28;20518;-59
2022/03/22 10:45:28;;;;;;;27.55;24.48;;;23.80;39.60;;;;;;5045109;28;20053;-58
2022/03/22 10:47:55;;;;;;;26.80;24.05;;;23.90;39.00;;;;;;5044541;28;20119;-59
2022/03/22 10:50:22;;;;;;;26.77;23.95;;;24.30;39.50;;;;;;5044690;28;20570;-60
2022/03/22 10:52:56;;;;;;;26.90;24.20;;;24.50;39.20;;;;;;5042944;28;20396;-60
2022/03/22 10:55:24;;;;;;;26.80;23.90;;;24.50;38.80;;;;;;5043205;28;20094;-59
2022/03/22 10:57:53;;;;;;;27.42;24.45;;;24.30;38.60;;;;;;5043993;28;20341;-59
2022/03/22 11:00:19;;;;;;;27.15;24.40;;;24.60;37.90;;;;;;5040305;28;20053;-61
2022/03/22 11:02:52;;;;;;;25.73;22.88;;;24.40;38.50;;;;;;5042943;28;20420;-59
2022/03/22 11:05:22;;;;;;;27.55;24.67;;;25.00;37.80;;;;;;5044019;28;20120;-60
2022/03/22 11:07:51;;;;;;;26.73;24.08;;;25.20;37.20;;;;;;5043200;28;20041;-59
2022/03/22 11:10:29;;;;;;;27.38;24.50;;;25.20;37.70;;;;;;5039699;28;20176;-60
2022/03/22 11:12:59;;;;;;;26.63;23.92;;;25.40;37.00;;;;;;5036372;28;20045;-60
2022/03/22 11:15:32;;;;;;;31.27;25.27;;;25.40;37.60;;;;;;5041815;28;20059;-59
2022/03/22 11:18:00;;;;;;;29.05;26.00;;;26.00;36.70;;;;;;5038394;28;20493;-60
2022/03/22 11:20:27;;;;;;;27.30;24.15;;;26.00;36.70;;;;;;5059538;28;20287;-59
2022/03/22 11:22:56;;;;;;;27.75;24.75;;;26.20;36.30;;;;;;5026622;28;20080;-59
2022/03/22 11:25:34;;;;;;;27.58;24.75;;;26.10;35.90;;;;;;5044188;28;20072;-59
2022/03/22 11:28:06;;;;;;;27.13;24.08;;;26.20;35.30;;;;;;5042849;28;20051;-60
2022/03/22 11:30:34;;;;;;;29.35;25.80;;;26.20;34.60;;;;;;5008459;28;20091;-59
2022/03/22 11:35:56;;;;;;;25.90;23.23;;;25.90;35.20;;;;;;5057029;28;20161;-59
2022/03/22 11:38:52;;;;;;;27.48;24.58;;;26.10;35.40;;;;;;5043472;28;20739;-59
2022/03/22 11:44:23;;;;;;;29.05;26.02;;;26.80;35.00;;;;;;5056875;28;20130;-64
2022/03/22 11:47:14;;;;;;;27.70;24.73;;;27.10;35.40;;;;;;5041781;28;20089;-64
2022/03/22 11:49:59;;;;;;;;;;;27.20;34.20;;;;;;5036570;28;20391;-65
2022/03/22 11:52:35;;;;;;;28.30;25.48;;;27.10;33.60;;;;;;5042904;28;19944;-66
2022/03/22 11:55:09;;;;;;;27.27;24.38;;;26.80;35.00;;;;;;5038638;28;20049;-66
2022/03/22 11:57:56;;;;;;;28.48;23.23;;;26.70;33.70;;;;;;5057808;28;20056;-66
2022/03/22 12:01:00;;;;;;;27.50;24.55;;;27.00;34.00;;;;;;5041433;28;20385;-66
2022/03/22 12:03:35;;;;;;;26.90;23.95;;;27.50;33.10;;;;;;5043489;28;20075;-65
2022/03/22 12:06:11;;;;;;;26.88;23.85;;;27.10;33.40;;;;;;5040599;28;20399;-66
2022/03/22 12:08:38;;;;;;;26.45;23.65;;;27.70;33.80;;;;;;5042847;28;20424;-66
2022/03/22 12:11:04;;;;;;;25.05;22.52;;;27.70;33.30;;;;;;5009047;28;20535;-65
2022/03/22 12:13:30;;;;;;;27.05;23.65;;;27.30;33.20;;;;;;5043630;28;20127;-66
2022/03/22 12:15:59;;;;;;;26.25;23.52;;;27.60;33.40;;;;;;5058413;28;20488;-66
2022/03/22 12:18:32;;;;;;;26.13;23.33;;;27.80;33.30;;;;;;5039683;28;20495;-66
2022/03/22 12:20:59;;;;;;;24.83;22.38;;;27.50;33.50;;;;;;5042634;28;20052;-66
2022/03/22 12:23:26;;;;;;;26.60;23.67;;;28.00;33.40;;;;;;5039558;28;20076;-66
2022/03/22 12:25:52;;;;;;;26.67;22.38;;;28.40;32.50;;;;;;5040630;28;20553;-66
2022/03/22 12:28:18;;;;;;;25.13;22.73;;;28.20;32.00;;;;;;5040435;28;20049;-65
2022/03/22 12:30:46;;;;;;;25.23;22.63;;;28.30;31.90;;;;;;5056379;28;20132;-65
2022/03/22 12:33:21;;;;;;;28.65;23.15;;;28.00;32.60;;;;;;5039957;28;20091;-65
2022/03/22 12:35:49;;;;;;;25.77;23.00;;;28.30;32.20;;;;;;5040845;28;20140;-65
2022/03/22 12:38:18;;;;;;;25.98;23.15;;;27.90;31.80;;;;;;5042096;28;20059;-66
2022/03/22 12:40:45;;;;;;;28.40;23.20;;;28.20;32.20;;;;;;5040744;28;20111;-65
2022/03/22 12:43:19;;;;;;;26.40;22.77;;;27.60;32.10;;;;;;5056823;28;20132;-65
2022/03/22 12:45:46;;;;;;;25.92;22.17;;;27.50;32.50;;;;;;5025233;28;20053;-60
2022/03/22 12:48:16;;;;;;;23.95;21.48;;;28.30;31.70;;;;;;5040460;28;20045;-60
2022/03/22 12:50:42;;;;;;;24.88;21.90;;;28.20;31.80;;;;;;5042351;28;20060;-61
2022/03/22 12:53:10;;;;;;;27.58;22.92;;;28.00;31.70;;;;;;5041104;28;20051;-60
2022/03/22 12:55:40;;;;;;;31.40;22.35;;;28.10;31.60;;;;;;5040931;28;20123;-60
2022/03/22 12:58:06;;;;;;;25.58;22.85;;;28.20;31.60;;;;;;5023666;28;20595;-60
2022/03/22 13:00:38;;;;;;;26.60;22.75;;;27.90;31.60;;;;;;5037852;28;20049;-60
2022/03/22 13:03:09;;;;;;;25.77;22.98;;;27.80;31.90;;;;;;5040587;28;20394;-65
2022/03/22 13:05:44;;;;;;;26.85;22.98;;;27.70;31.90;;;;;;5039776;28;20053;-65
2022/03/22 13:08:19;;;;;;;27.67;22.35;;;27.30;31.80;;;;;;5055819;28;20048;-65